Time;durP1;ratioP1;P1;durP2;ratioP2;P2;SDS_P1;SDS_P2;PMS_P1;PMS_P2;Temp;Humidity;BMP_temperature;BMP_pressure;BME280_temperature;BME280_humidity;BME280_pressure;Samples;Min_cycle;Max_cycle;Signal;HPM_P1;HPM_P2
2023/05/18 00:01:07;;;;;;;13.13;4.50;;;3.00;99.90;3.80;94557.00;;;;7401990;19;20140;-73
2023/05/18 00:03:34;;;;;;;8.73;3.87;;;3.10;99.90;3.80;94623.00;;;;7399980;19;20181;-74
2023/05/18 00:06:08;;;;;;;7.43;4.70;;;3.10;99.90;3.80;94584.00;;;;7400558;19;20136;-73
2023/05/18 00:08:37;;;;;;;9.10;3.87;;;3.10;99.90;3.80;94602.00;;;;7402603;19;20152;-74
2023/05/18 00:11:11;;;;;;;8.60;4.17;;;3.10;99.90;3.80;94606.00;;;;7401522;19;20140;-75
2023/05/18 00:13:45;;;;;;;5.30;3.63;;;3.10;99.90;3.70;94555.00;;;;7402177;19;20471;-74
2023/05/18 00:16:19;;;;;;;6.43;4.20;;;3.10;99.90;3.60;94572.00;;;;7402032;19;20129;-74
2023/05/18 00:18:53;;;;;;;12.23;4.17;;;3.10;99.90;3.60;94543.00;;;;7401980;19;20176;-77
2023/05/18 00:21:29;;;;;;;6.00;3.60;;;3.00;99.90;3.50;94576.00;;;;7401330;19;20132;-75
2023/05/18 00:24:03;;;;;;;5.57;3.90;;;2.90;99.90;3.50;94576.00;;;;7401302;19;20169;-76
2023/05/18 00:26:30;;;;;;;9.07;4.20;;;2.90;99.90;3.60;94588.00;;;;7400819;19;20149;-73
2023/05/18 00:29:05;;;;;;;10.90;4.03;;;2.90;99.90;3.60;94553.00;;;;7401396;19;20662;-75
2023/05/18 00:31:39;;;;;;;8.83;4.40;;;2.90;99.90;3.50;94569.00;;;;7400622;19;20152;-73
2023/05/18 00:34:14;;;;;;;9.50;4.10;;;2.90;99.90;3.50;94588.00;;;;7399962;19;20133;-75
2023/05/18 00:36:48;;;;;;;9.83;4.37;;;2.90;99.90;3.50;94533.00;;;;7398749;19;20148;-74
2023/05/18 00:39:22;;;;;;;10.10;4.67;;;2.90;1.00;3.40;94593.00;;;;7402612;19;20133;-73
2023/05/18 00:41:49;;;;;;;15.63;4.70;;;2.90;99.90;3.50;94585.00;;;;7400642;19;20152;-73
2023/05/18 00:44:23;;;;;;;8.37;3.77;;;2.90;1.00;3.40;94583.00;;;;7400357;19;20144;-73
2023/05/18 00:46:50;;;;;;;11.80;4.63;;;2.90;1.00;3.40;94574.00;;;;7399803;19;20152;-75
2023/05/18 00:49:26;;;;;;;7.03;4.20;;;2.80;1.00;3.40;94547.00;;;;7400159;19;20636;-75
2023/05/18 00:52:02;;;;;;;10.53;4.93;;;2.90;1.00;3.50;94538.00;;;;7400881;19;20148;-73
2023/05/18 00:54:36;;;;;;;9.27;4.40;;;2.80;1.00;3.40;94580.00;;;;7399136;19;20483;-74
2023/05/18 00:57:05;;;;;;;7.00;4.30;;;2.80;1.00;3.30;94575.00;;;;7397589;19;20609;-75
2023/05/18 00:59:33;;;;;;;8.07;4.37;;;2.70;1.00;3.30;94520.00;;;;7401230;19;20592;-75
2023/05/18 01:02:14;;;;;;;12.27;4.30;;;2.80;1.00;3.30;94507.00;;;;7398155;19;20202;-73
2023/05/18 01:04:48;;;;;;;9.30;4.67;;;2.80;1.00;3.40;94552.00;;;;7398617;19;20548;-73
2023/05/18 01:07:25;;;;;;;8.20;4.50;;;2.80;1.00;3.50;94555.00;;;;7399204;19;20172;-73
2023/05/18 01:09:53;;;;;;;10.07;4.13;;;2.80;1.00;3.60;94557.00;;;;7400590;19;20133;-73
2023/05/18 01:12:36;;;;;;;10.63;4.60;;;2.90;1.00;3.40;94551.00;;;;7399214;19;20144;-74
2023/05/18 01:15:23;;;;;;;11.07;4.20;;;2.90;1.00;3.40;94532.00;;;;7398727;19;20146;-73
2023/05/18 01:18:27;;;;;;;7.33;3.97;;;2.90;1.00;3.50;94554.00;;;;7395547;19;20156;-74
2023/05/18 01:20:58;;;;;;;16.27;4.90;;;3.00;1.00;3.30;94558.00;;;;7400594;19;20137;-73
2023/05/18 01:23:59;;;;;;;9.30;4.03;;;3.00;1.00;3.40;94561.00;;;;7398789;19;20148;-74
2023/05/18 01:26:30;;;;;;;7.13;3.83;;;2.90;1.00;3.40;94527.00;;;;7397581;19;20502;-74
2023/05/18 01:29:08;;;;;;;9.53;4.03;;;2.80;1.00;3.40;94549.00;;;;7399851;19;20145;-73
2023/05/18 01:31:43;;;;;;;11.50;4.30;;;2.70;1.00;3.40;94509.00;;;;7398052;19;20566;-73
2023/05/18 01:34:10;;;;;;;8.30;4.23;;;2.80;1.00;3.40;94551.00;;;;7397898;19;20144;-73
2023/05/18 01:36:44;;;;;;;10.43;4.37;;;2.80;1.00;3.40;94561.00;;;;7396575;19;20595;-73
2023/05/18 01:39:18;;;;;;;14.17;4.40;;;2.90;1.00;3.60;94554.00;;;;7398568;19;20137;-73
2023/05/18 01:42:02;;;;;;;15.70;4.70;;;2.90;1.00;3.60;94536.00;;;;7400235;19;20147;-73
2023/05/18 01:44:49;;;;;;;8.27;4.47;;;3.00;1.00;3.60;94540.00;;;;7398237;19;20469;-73
2023/05/18 01:47:28;;;;;;;11.80;4.13;;;2.90;1.00;3.60;94553.00;;;;7399488;19;20205;-73
2023/05/18 01:50:18;;;;;;;10.57;4.20;;;2.90;1.00;3.70;94538.00;;;;7397036;19;20195;-73
2023/05/18 01:52:56;;;;;;;9.77;4.17;;;2.90;1.00;3.70;94563.00;;;;7397984;19;20155;-73
2023/05/18 01:55:32;;;;;;;10.40;4.47;;;2.90;1.00;3.80;94536.00;;;;7394804;19;20623;-73
2023/05/18 01:58:01;;;;;;;13.43;4.80;;;3.00;1.00;3.90;94551.00;;;;7395135;19;20159;-74
2023/05/18 02:00:36;;;;;;;9.27;4.77;;;3.00;1.00;3.80;94536.00;;;;7396727;19;20152;-74
2023/05/18 02:03:10;;;;;;;10.77;4.60;;;3.00;1.00;3.60;94549.00;;;;7387145;19;20172;-73
2023/05/18 02:05:51;;;;;;;11.83;4.67;;;3.00;1.00;3.70;94536.00;;;;7389511;19;20148;-73
2023/05/18 02:08:25;;;;;;;9.40;4.30;;;3.00;1.00;3.70;94542.00;;;;7397934;19;20481;-73
2023/05/18 02:10:52;;;;;;;11.07;4.50;;;2.90;1.00;3.80;94533.00;;;;7397323;19;20212;-73
2023/05/18 02:13:26;;;;;;;14.30;5.00;;;3.00;1.00;3.70;94551.00;;;;7395886;19;20145;-73
2023/05/18 02:16:03;;;;;;;12.07;5.23;;;3.00;1.00;3.80;94492.00;;;;7398069;19;20587;-73
2023/05/18 02:18:37;;;;;;;9.50;4.97;;;3.00;1.00;3.90;94529.00;;;;7394921;19;20132;-73
2023/05/18 02:21:12;;;;;;;8.90;4.57;;;3.00;1.00;3.90;94551.00;;;;7399012;19;20164;-73
2023/05/18 02:23:46;;;;;;;11.17;5.37;;;3.10;1.00;3.90;94513.00;;;;7397028;19;20624;-73
2023/05/18 02:26:13;;;;;;;14.90;5.53;;;3.10;1.00;3.90;94521.00;;;;7395913;19;20152;-73
2023/05/18 02:28:47;;;;;;;11.37;5.50;;;3.20;1.00;3.80;94524.00;;;;7396822;19;20149;-73
2023/05/18 02:31:14;;;;;;;10.63;4.50;;;3.20;1.00;3.70;94529.00;;;;7397200;19;20141;-73
2023/05/18 02:33:48;;;;;;;7.37;4.00;;;3.10;1.00;3.60;94534.00;;;;7396810;19;20139;-73
2023/05/18 02:36:22;;;;;;;10.83;4.53;;;3.00;1.00;3.50;94529.00;;;;7395242;19;20153;-73
2023/05/18 02:38:56;;;;;;;8.37;4.90;;;2.90;1.00;3.50;94529.00;;;;7397876;19;20228;-73
2023/05/18 02:41:23;;;;;;;9.70;4.77;;;2.80;1.00;3.40;94503.00;;;;7396476;19;20152;-73
2023/05/18 02:43:57;;;;;;;10.20;5.10;;;2.80;1.00;3.50;94493.00;;;;7397113;19;20580;-74
2023/05/18 02:46:24;;;;;;;9.60;5.40;;;2.70;1.00;3.60;94517.00;;;;7396703;19;20136;-73
2023/05/18 02:48:52;;;;;;;15.30;5.70;;;2.80;1.00;3.40;94493.00;;;;7395714;19;20149;-73
2023/05/18 02:51:25;;;;;;;16.13;5.23;;;2.70;1.00;3.40;94485.00;;;;7397579;19;20133;-73
2023/05/18 02:53:52;;;;;;;11.27;5.20;;;2.60;1.00;3.40;94491.00;;;;7398092;19;20330;-74
2023/05/18 02:56:21;;;;;;;13.10;6.17;;;2.60;80.90;3.50;94525.00;;;;7394317;19;20140;-74
2023/05/18 02:58:56;;;;;;;10.73;6.00;;;2.60;99.90;3.50;94525.00;;;;7397679;19;20137;-73
2023/05/18 03:01:27;;;;;;;15.90;5.90;;;2.60;99.90;3.50;94527.00;;;;7396344;19;20149;-73
2023/05/18 03:04:08;;;;;;;10.43;5.57;;;2.60;99.90;3.50;94506.00;;;;7393819;19;20204;-73
2023/05/18 03:06:51;;;;;;;13.20;6.27;;;2.60;99.90;3.40;94509.00;;;;7396071;19;20611;-73
2023/05/18 03:09:25;;;;;;;11.27;6.07;;;2.50;99.90;3.30;94524.00;;;;7397252;19;20137;-73
2023/05/18 03:11:53;;;;;;;10.47;6.03;;;2.50;99.90;3.40;94493.00;;;;7395680;19;20600;-73
2023/05/18 03:14:26;;;;;;;11.40;6.37;;;2.50;99.90;3.60;94534.00;;;;7394923;19;20136;-72
2023/05/18 03:16:56;;;;;;;13.30;6.20;;;2.60;99.90;3.70;94540.00;;;;7395044;19;20257;-73
2023/05/18 03:19:33;;;;;;;9.97;5.63;;;2.60;99.90;3.40;94509.00;;;;7397200;19;20149;-73
2023/05/18 03:22:01;;;;;;;14.00;5.53;;;2.60;99.90;3.30;94526.00;;;;7397002;19;20596;-73
2023/05/18 03:24:39;;;;;;;11.97;6.30;;;2.50;99.90;3.30;94519.00;;;;7394310;19;20627;-73
2023/05/18 03:27:06;;;;;;;15.67;6.17;;;2.40;99.90;3.10;94507.00;;;;7400956;19;20189;-73
2023/05/18 03:29:40;;;;;;;10.63;5.77;;;2.40;99.90;3.10;94521.00;;;;7402739;19;20153;-73
2023/05/18 03:32:07;;;;;;;12.27;6.40;;;2.30;99.90;3.20;94493.00;;;;7403109;19;20164;-73
2023/05/18 03:34:43;;;;;;;13.30;6.43;;;2.30;1.00;3.30;94517.00;;;;7402761;19;20129;-73
2023/05/18 03:37:11;;;;;;;16.33;7.70;;;2.40;1.00;3.30;94498.00;;;;7401553;19;20623;-73
2023/05/18 03:39:39;;;;;;;13.63;6.93;;;2.40;1.00;3.30;94525.00;;;;7402697;19;20137;-73
2023/05/18 03:42:13;;;;;;;19.53;7.10;;;2.40;1.00;3.20;94532.00;;;;7401878;19;20144;-74
2023/05/18 03:44:41;;;;;;;17.40;7.37;;;2.40;1.00;3.20;94517.00;;;;7401417;19;20136;-74
2023/05/18 03:47:14;;;;;;;12.70;6.17;;;2.40;1.00;3.20;94490.00;;;;7402060;19;20132;-74
2023/05/18 03:49:48;;;;;;;11.63;7.20;;;2.30;1.00;3.10;94504.00;;;;7403421;19;20139;-74
2023/05/18 03:52:22;;;;;;;9.50;6.77;;;2.30;1.00;3.10;94532.00;;;;7401884;19;20139;-74
2023/05/18 03:54:50;;;;;;;15.77;7.33;;;2.30;1.00;3.30;94499.00;;;;7399940;19;20166;-72
2023/05/18 03:57:25;;;;;;;16.03;6.90;;;2.30;1.00;3.40;94507.00;;;;7377901;19;20136;-75
2023/05/18 03:59:53;;;;;;;16.87;7.13;;;2.40;1.00;3.50;94527.00;;;;7379831;19;20195;-74
2023/05/18 04:02:21;;;;;;;15.83;6.97;;;2.50;1.00;3.70;94521.00;;;;7384290;19;20153;-75
2023/05/18 04:05:01;;;;;;;12.50;6.53;;;2.60;99.90;3.50;94534.00;;;;7400138;19;20479;-76
2023/05/18 04:07:29;;;;;;;12.70;6.63;;;2.60;99.90;3.50;94523.00;;;;7402440;19;20159;-75
2023/05/18 04:10:02;;;;;;;15.50;5.73;;;2.60;99.90;3.40;94544.00;;;;7401106;19;20153;-76
2023/05/18 04:12:30;;;;;;;19.97;7.13;;;2.60;99.90;3.60;94540.00;;;;7398623;19;20156;-75
2023/05/18 04:15:05;;;;;;;17.37;7.23;;;2.60;99.90;3.60;94514.00;;;;7398242;19;20176;-74
2023/05/18 04:17:44;;;;;;;15.00;6.83;;;2.70;99.90;3.80;94547.00;;;;7400009;19;20155;-75
2023/05/18 04:20:18;;;;;;;16.93;7.20;;;2.80;99.90;3.80;94538.00;;;;7397064;19;20180;-74
2023/05/18 04:22:54;;;;;;;14.30;7.37;;;2.80;99.90;4.00;94545.00;;;;7400857;19;20647;-76
2023/05/18 04:25:26;;;;;;;16.77;7.13;;;2.90;99.90;3.90;94546.00;;;;7395527;19;20133;-75
2023/05/18 04:28:01;;;;;;;13.20;6.80;;;3.00;65.80;3.90;94519.00;;;;7398224;19;20129;-75
2023/05/18 04:30:29;;;;;;;15.57;6.70;;;3.00;1.00;4.10;94541.00;;;;7399774;19;20156;-75
2023/05/18 04:32:58;;;;;;;16.60;6.00;;;3.10;1.00;4.10;94547.00;;;;7397554;19;20208;-78
2023/05/18 04:35:33;;;;;;;14.03;6.13;;;3.10;1.00;4.10;94543.00;;;;7398854;19;20152;-75
2023/05/18 04:38:06;;;;;;;12.53;6.07;;;3.20;1.00;4.20;94508.00;;;;7397477;19;20502;-75
2023/05/18 04:40:41;;;;;;;13.53;6.13;;;3.20;1.00;4.00;94562.00;;;;7400525;19;20137;-75
2023/05/18 04:43:21;;;;;;;12.70;6.43;;;3.30;1.00;4.40;94537.00;;;;7399655;19;20157;-74
2023/05/18 04:45:54;;;;;;;13.90;5.80;;;3.40;99.90;4.50;94548.00;;;;7398328;19;20583;-74
2023/05/18 04:48:30;;;;;;;13.30;5.63;;;3.40;99.90;4.50;94521.00;;;;7400032;19;20626;-75
2023/05/18 04:51:05;;;;;;;10.90;5.43;;;3.50;99.90;4.60;94526.00;;;;7399595;19;20151;-75
2023/05/18 04:53:38;;;;;;;15.97;5.67;;;3.60;1.00;4.70;94553.00;;;;7395881;19;20447;-75
2023/05/18 04:56:06;;;;;;;11.50;4.80;;;3.70;1.00;4.70;94556.00;;;;7396448;19;20136;-75
2023/05/18 04:58:50;;;;;;;9.73;5.20;;;3.70;1.00;4.90;94552.00;;;;7397940;19;20615;-74
2023/05/18 05:01:17;;;;;;;13.40;5.23;;;3.80;1.00;4.80;94566.00;;;;7398215;19;20141;-76
2023/05/18 05:03:58;;;;;;;17.90;6.10;;;3.90;1.00;5.00;94534.00;;;;7398195;19;20484;-75
2023/05/18 05:06:31;;;;;;;14.03;5.03;;;4.00;1.00;5.20;94532.00;;;;7399018;19;20583;-75
2023/05/18 05:08:58;;;;;;;11.13;4.77;;;4.10;1.00;5.20;94559.00;;;;7398993;19;20489;-74
2023/05/18 05:11:33;;;;;;;10.77;5.17;;;4.20;99.90;5.30;94540.00;;;;7397255;19;20148;-75
2023/05/18 05:14:07;;;;;;;8.80;4.37;;;4.30;99.90;5.50;94532.00;;;;7399919;19;20128;-75
2023/05/18 05:16:41;;;;;;;18.07;4.87;;;4.40;99.90;5.70;94527.00;;;;7395170;19;20211;-75
2023/05/18 05:19:09;;;;;;;15.57;4.80;;;4.50;99.90;5.70;94536.00;;;;7393827;19;20124;-74
2023/05/18 05:21:42;;;;;;;10.23;4.77;;;4.60;99.90;5.80;94557.00;;;;7398510;19;20117;-74
2023/05/18 05:24:10;;;;;;;15.23;4.73;;;4.70;99.90;6.00;94539.00;;;;7398045;19;20631;-75
2023/05/18 05:26:43;;;;;;;9.63;4.07;;;4.80;18.50;6.20;94522.00;;;;7397687;19;20133;-74
2023/05/18 05:29:10;;;;;;;24.97;5.13;;;5.00;1.00;6.50;94559.00;;;;7397942;19;20245;-75
2023/05/18 05:31:44;;;;;;;11.23;4.30;;;5.10;1.00;6.60;94556.00;;;;7397964;19;20137;-74
2023/05/18 05:34:18;;;;;;;9.13;4.20;;;5.20;1.00;6.80;94541.00;;;;7398374;19;20167;-76
2023/05/18 05:36:52;;;;;;;20.90;4.70;;;5.30;1.00;6.80;94556.00;;;;7398209;19;20133;-75
2023/05/18 05:39:20;;;;;;;11.53;4.23;;;5.50;1.00;7.00;94552.00;;;;7396209;19;20137;-76
2023/05/18 05:41:53;;;;;;;13.50;4.03;;;5.60;1.00;6.90;94549.00;;;;7397512;19;20132;-76
2023/05/18 05:44:27;;;;;;;8.17;3.73;;;5.60;1.00;7.00;94538.00;;;;7397274;19;20502;-74
2023/05/18 05:47:02;;;;;;;10.13;3.80;;;5.70;1.00;6.90;94547.00;;;;7398893;19;20139;-76
2023/05/18 05:49:35;;;;;;;13.83;3.50;;;5.60;99.90;7.00;94555.00;;;;7395699;19;20619;-75
2023/05/18 05:52:09;;;;;;;12.73;3.80;;;5.70;99.90;6.90;94555.00;;;;7398332;19;20136;-74
2023/05/18 05:54:43;;;;;;;11.03;3.33;;;5.80;99.90;6.90;94533.00;;;;7395860;19;20481;-76
2023/05/18 05:57:11;;;;;;;8.90;3.30;;;5.90;99.90;7.10;94558.00;;;;7394336;19;20139;-75
2023/05/18 05:59:44;;;;;;;9.83;3.87;;;5.90;99.90;7.30;94563.00;;;;7396077;19;20201;-76
2023/05/18 06:02:19;;;;;;;11.97;3.77;;;6.00;99.90;7.70;94570.00;;;;7396391;19;20176;-76
2023/05/18 06:05:02;;;;;;;11.30;3.90;;;6.20;99.90;8.10;94568.00;;;;7396063;19;20125;-75
2023/05/18 06:07:30;;;;;;;8.10;3.30;;;6.40;99.90;8.30;94566.00;;;;7396213;19;20152;-76
2023/05/18 06:10:04;;;;;;;11.43;4.00;;;6.50;99.90;8.30;94573.00;;;;7397200;19;20192;-75
2023/05/18 06:12:31;;;;;;;13.27;4.60;;;6.60;99.90;8.40;94572.00;;;;7396887;19;20136;-76
2023/05/18 06:15:05;;;;;;;17.90;3.90;;;6.80;99.90;8.80;94556.00;;;;7395318;19;20129;-75
2023/05/18 06:17:39;;;;;;;11.53;3.37;;;6.90;99.90;8.60;94563.00;;;;7395878;19;20575;-76
2023/05/18 06:20:12;;;;;;;8.63;2.87;;;7.00;99.90;8.80;94564.00;;;;7398247;19;20710;-76
2023/05/18 06:22:40;;;;;;;7.97;3.37;;;7.10;99.90;8.80;94534.00;;;;7398078;19;20461;-75
2023/05/18 06:25:14;;;;;;;11.23;3.60;;;7.10;99.90;9.00;94543.00;;;;7397261;19;20556;-76
2023/05/18 06:27:47;;;;;;;14.17;3.60;;;7.20;99.90;9.10;94572.00;;;;7396588;19;20137;-76
2023/05/18 06:30:21;;;;;;;9.60;3.13;;;7.50;99.90;9.40;94544.00;;;;7396888;19;20164;-76
2023/05/18 06:32:55;;;;;;;8.38;3.47;;;7.60;99.90;9.50;94561.00;;;;7395590;19;20154;-76
2023/05/18 06:35:29;;;;;;;7.05;3.20;;;7.80;99.90;9.70;94575.00;;;;7396525;19;20136;-75
2023/05/18 06:38:03;;;;;;;12.40;3.30;;;7.90;70.20;9.70;94571.00;;;;7396077;19;20200;-75
2023/05/18 06:40:30;;;;;;;8.50;3.58;;;7.90;39.90;9.60;94550.00;;;;7394926;19;20140;-76
2023/05/18 06:43:04;;;;;;;9.73;3.35;;;8.00;60.10;10.10;94561.00;;;;7395387;19;20169;-76
2023/05/18 06:45:32;;;;;;;6.28;2.65;;;8.10;29.50;10.10;94570.00;;;;7393620;19;20141;-76
2023/05/18 06:48:05;;;;;;;8.07;3.20;;;8.30;99.90;9.70;94557.00;;;;7394802;19;20144;-76
2023/05/18 06:50:33;;;;;;;8.18;3.35;;;8.30;81.00;10.10;94555.00;;;;7397776;19;20139;-76
2023/05/18 06:53:06;;;;;;;12.30;3.65;;;8.50;99.90;10.80;94545.00;;;;7394008;19;20149;-76
2023/05/18 06:55:40;;;;;;;9.98;3.13;;;8.70;89.90;12.00;94560.00;;;;7394113;19;20160;-76
2023/05/18 06:58:14;;;;;;;11.20;3.35;;;9.10;89.40;12.60;94552.00;;;;7394533;19;20149;-76
2023/05/18 07:00:41;;;;;;;11.57;3.17;;;9.40;8.90;12.30;94534.00;;;;7400524;19;20592;-76
2023/05/18 07:03:22;;;;;;;11.43;3.28;;;9.70;1.00;12.50;94548.00;;;;7399430;19;20168;-75
2023/05/18 07:05:49;;;;;;;10.60;3.45;;;9.70;1.00;12.40;94555.00;;;;7404291;19;20493;-76
2023/05/18 07:08:24;;;;;;;9.65;3.97;;;9.70;1.00;12.30;94574.00;;;;7401758;19;20129;-75
2023/05/18 07:10:51;;;;;;;8.43;3.30;;;9.80;1.00;12.20;94557.00;;;;7402987;19;20460;-76
2023/05/18 07:13:25;;;;;;;7.65;2.80;;;9.90;1.00;12.40;94552.00;;;;7401010;19;20152;-76
2023/05/18 07:15:59;;;;;;;11.43;3.60;;;10.00;1.00;12.40;94573.00;;;;7403673;19;20148;-76
2023/05/18 07:18:27;;;;;;;9.85;3.20;;;10.00;1.00;12.80;94564.00;;;;7399782;19;20588;-75
2023/05/18 07:21:07;;;;;;;10.75;3.40;;;10.10;1.00;12.40;94567.00;;;;7402370;19;20631;-76
2023/05/18 07:23:41;;;;;;;7.72;3.53;;;10.00;1.00;12.40;94553.00;;;;7398671;19;20160;-76
2023/05/18 07:26:15;;;;;;;6.40;3.40;;;10.20;1.00;12.50;94569.00;;;;7402469;19;20136;-76
2023/05/18 07:28:50;;;;;;;9.18;3.70;;;;;12.40;94572.00;;;;7403071;19;20557;-75
2023/05/18 07:31:26;;;;;;;9.32;3.60;;;10.40;1.00;12.50;94573.00;;;;7394924;19;20120;-76
2023/05/18 07:34:00;;;;;;;7.88;3.90;;;10.40;1.00;12.80;94563.00;;;;7396145;19;20128;-76
2023/05/18 07:36:34;;;;;;;8.25;3.80;;;10.40;1.00;13.40;94566.00;;;;7393110;19;20124;-76
2023/05/18 07:39:02;;;;;;;7.88;3.38;;;10.70;1.00;13.50;94563.00;;;;7392322;19;20152;-76
2023/05/18 07:41:36;;;;;;;8.73;3.65;;;10.90;1.00;13.20;94549.00;;;;7392999;19;20136;-76
2023/05/18 07:44:03;;;;;;;6.82;3.63;;;11.00;1.00;13.50;94576.00;;;;7394966;19;20504;-77
2023/05/18 07:46:37;;;;;;;8.82;4.10;;;11.10;1.00;13.30;94560.00;;;;7395567;19;20193;-76
2023/05/18 07:49:12;;;;;;;8.98;4.03;;;11.30;1.00;13.60;94572.00;;;;7396337;19;20588;-75
2023/05/18 07:51:47;;;;;;;10.07;4.28;;;11.00;1.00;13.50;94557.00;;;;7391319;19;20140;-76
2023/05/18 07:54:14;;;;;;;11.48;4.13;;;11.10;1.00;13.70;94581.00;;;;7393230;19;20216;-76
2023/05/18 07:56:49;;;;;;;6.50;3.63;;;11.20;1.00;14.10;94571.00;;;;7395547;19;20136;-75
2023/05/18 07:59:26;;;;;;;11.57;3.90;;;11.40;1.00;14.30;94562.00;;;;7394097;19;20137;-75
2023/05/18 08:01:53;;;;;;;6.03;3.78;;;11.50;1.00;13.80;94590.00;;;;7393141;19;20738;-76
2023/05/18 08:04:34;;;;;;;12.45;4.50;;;11.50;1.00;13.70;94581.00;;;;7390641;19;20148;-76
2023/05/18 08:07:02;;;;;;;10.60;3.90;;;11.70;1.00;14.10;94565.00;;;;7395398;19;20504;-76
2023/05/18 08:09:35;;;;;;;8.45;4.03;;;11.60;1.00;13.50;94582.00;;;;7395627;19;20232;-75
2023/05/18 08:12:03;;;;;;;6.63;3.85;;;11.60;1.00;14.10;94580.00;;;;7397430;19;20502;-76
2023/05/18 08:14:31;;;;;;;13.93;4.05;;;11.60;1.00;14.00;94566.00;;;;7397985;19;20149;-76
2023/05/18 08:17:05;;;;;;;10.88;5.30;;;11.80;1.00;13.60;94586.00;;;;7397581;19;20165;-76
2023/05/18 08:19:38;;;;;;;7.85;3.83;;;12.00;1.00;14.10;94548.00;;;;7401216;19;20153;-76
2023/05/18 08:22:14;;;;;;;11.45;4.00;;;11.90;1.00;13.90;94573.00;;;;7399419;19;20481;-76
2023/05/18 08:24:41;;;;;;;9.88;4.65;;;12.00;1.00;14.40;94592.00;;;;7399950;19;20136;-77
2023/05/18 08:27:15;;;;;;;7.82;4.70;;;12.20;1.00;14.80;94590.00;;;;7400603;19;20141;-76
2023/05/18 08:29:43;;;;;;;6.10;4.25;;;12.40;1.00;14.60;94584.00;;;;7396746;19;20799;-76
2023/05/18 08:32:17;;;;;;;9.88;4.38;;;12.50;1.00;15.10;94580.00;;;;7400219;19;20223;-75
2023/05/18 08:34:45;;;;;;;9.75;4.63;;;12.60;1.00;15.50;94579.00;;;;7392997;19;20117;-77
2023/05/18 08:37:20;;;;;;;12.18;4.78;;;12.60;1.00;15.00;94530.00;;;;7397825;19;20117;-77
2023/05/18 08:39:54;;;;;;;10.52;4.28;;;12.60;1.00;15.50;94576.00;;;;7398736;19;20124;-76
2023/05/18 08:42:45;;;;;;;12.50;4.45;;;12.70;1.00;15.60;94523.00;;;;7401212;19;20476;-77
2023/05/18 08:45:28;;;;;;;8.82;4.28;;;12.80;1.00;15.60;94575.00;;;;7398896;19;20126;-76
2023/05/18 08:48:03;;;;;;;11.13;4.40;;;12.80;1.00;16.00;94563.00;;;;7401453;19;20456;-77
2023/05/18 08:50:32;;;;;;;8.93;4.35;;;13.20;1.00;15.70;94566.00;;;;7398300;19;20158;-77
2023/05/18 08:53:05;;;;;;;9.07;4.45;;;13.50;1.00;15.80;94575.00;;;;7398986;19;20510;-77
2023/05/18 08:55:43;;;;;;;9.13;4.25;;;13.70;1.00;16.30;94563.00;;;;7398940;19;20165;-77
2023/05/18 08:58:31;;;;;;;8.77;4.03;;;13.90;1.00;16.20;94567.00;;;;7397383;19;20139;-76
2023/05/18 09:00:59;;;;;;;7.95;3.92;;;13.90;1.00;16.10;94541.00;;;;7396279;19;20128;-76
2023/05/18 09:03:39;;;;;;;9.80;4.70;;;13.90;1.00;16.30;94557.00;;;;7395723;19;20180;-75
2023/05/18 09:06:07;;;;;;;11.35;4.35;;;14.20;1.00;17.10;94564.00;;;;7396790;19;20158;-77
2023/05/18 09:08:41;;;;;;;9.68;4.50;;;14.30;1.00;17.20;94553.00;;;;7398633;19;20156;-76
2023/05/18 09:11:11;;;;;;;9.43;4.40;;;14.50;1.00;16.50;94553.00;;;;7397729;19;20593;-76
2023/05/18 09:13:47;;;;;;;9.27;4.40;;;14.00;1.00;16.50;94562.00;;;;7398370;19;20607;-73
2023/05/18 09:16:14;;;;;;;11.20;4.50;;;14.10;1.00;17.00;94537.00;;;;7396246;19;20498;-74
2023/05/18 09:18:48;;;;;;;10.35;4.10;;;14.30;1.00;17.10;94559.00;;;;7398141;19;20155;-74
2023/05/18 09:21:16;;;;;;;9.07;4.10;;;14.40;1.00;17.00;94566.00;;;;7396430;19;20511;-74
2023/05/18 09:23:50;;;;;;;8.05;3.80;;;14.50;1.00;16.90;94555.00;;;;7398598;19;20141;-71
2023/05/18 09:26:20;;;;;;;11.52;4.28;;;14.40;1.00;17.10;94540.00;;;;7395753;19;20132;-71
2023/05/18 09:28:54;;;;;;;11.63;4.93;;;14.60;1.00;17.70;94554.00;;;;7400053;19;20157;-72
2023/05/18 09:31:29;;;;;;;12.93;4.55;;;15.00;1.00;18.10;94533.00;;;;7395112;19;20596;-72
2023/05/18 09:34:05;;;;;;;11.93;4.18;;;15.20;1.00;17.90;94561.00;;;;7396721;19;20465;-71
2023/05/18 09:36:39;;;;;;;7.43;4.00;;;15.20;1.00;17.80;94563.00;;;;7398208;19;20125;-72
2023/05/18 09:39:09;;;;;;;9.23;3.92;;;15.20;1.00;17.20;94590.00;;;;7397681;19;20144;-72
2023/05/18 09:41:42;;;;;;;9.75;3.72;;;15.20;1.00;17.10;94568.00;;;;7392809;19;20588;-75
2023/05/18 09:44:17;;;;;;;8.95;4.00;;;15.10;1.00;18.00;94537.00;;;;7395797;19;20144;-75
2023/05/18 09:46:55;;;;;;;14.65;4.38;;;15.40;1.00;17.80;94529.00;;;;7396648;19;20132;-73
2023/05/18 09:49:30;;;;;;;12.93;4.50;;;15.50;1.00;18.30;94558.00;;;;7393177;19;20140;-73
2023/05/18 09:52:08;;;;;;;7.22;3.95;;;15.60;1.00;18.30;94521.00;;;;7394345;19;20152;-74
2023/05/18 09:54:41;;;;;;;8.20;4.10;;;16.00;1.00;18.90;94573.00;;;;7397102;19;20136;-73
2023/05/18 09:57:09;;;;;;;7.20;3.83;;;16.40;1.00;17.80;94585.00;;;;7395923;19;20463;-73
2023/05/18 09:59:42;;;;;;;8.77;3.83;;;16.20;1.00;17.60;94565.00;;;;7395580;19;20503;-74
2023/05/18 10:02:12;;;;;;;11.55;3.65;;;16.00;1.00;16.20;94593.00;;;;7397381;19;20145;-73
2023/05/18 10:04:53;;;;;;;9.32;3.65;;;15.60;1.00;16.70;94543.00;;;;7395699;19;20238;-73
2023/05/18 10:07:21;;;;;;;8.85;4.43;;;15.40;1.00;17.30;94539.00;;;;7398787;19;20484;-74
2023/05/18 10:10:03;;;;;;;6.70;3.67;;;15.90;1.00;18.20;94541.00;;;;7396618;19;20129;-73
2023/05/18 10:12:31;;;;;;;10.13;3.97;;;16.20;1.00;18.10;94565.00;;;;7397289;19;20580;-73
2023/05/18 10:15:13;;;;;;;8.10;3.60;;;16.50;1.00;17.10;94580.00;;;;7394043;19;20618;-75
2023/05/18 10:17:50;;;;;;;8.73;3.58;;;16.30;1.00;16.10;94566.00;;;;7396616;19;20141;-75
2023/05/18 10:20:27;;;;;;;7.65;3.40;;;15.70;1.00;16.00;94564.00;;;;7396701;19;20599;-75
2023/05/18 10:23:05;;;;;;;7.25;3.47;;;15.20;1.00;17.20;94565.00;;;;7397453;19;20129;-74
2023/05/18 10:25:35;;;;;;;12.40;4.38;;;15.60;1.00;18.70;94491.00;;;;7394271;19;20703;-74
2023/05/18 10:28:10;;;;;;;14.85;3.58;;;16.40;1.00;18.50;94543.00;;;;7394949;19;20128;-75
2023/05/18 10:30:45;;;;;;;13.40;3.58;;;16.50;1.00;16.90;94567.00;;;;7389065;19;20148;-72
2023/05/18 10:33:22;;;;;;;10.73;3.50;;;16.00;1.00;16.90;94552.00;;;;7393008;19;20177;-73
2023/05/18 10:35:56;;;;;;;9.52;3.65;;;15.60;1.00;18.20;94541.00;;;;7391871;19;20455;-73
2023/05/18 10:38:37;;;;;;;9.88;3.60;;;15.90;1.00;18.30;94542.00;;;;7393375;19;20167;-74
2023/05/18 10:41:06;;;;;;;6.35;3.33;;;16.70;1.00;17.80;94572.00;;;;7390216;19;20172;-74
2023/05/18 10:43:44;;;;;;;9.55;3.65;;;16.80;1.00;17.80;94584.00;;;;7395465;19;20133;-73
2023/05/18 10:46:20;;;;;;;9.23;3.67;;;16.50;1.00;17.90;94519.00;;;;7387432;19;20168;-73
2023/05/18 10:48:56;;;;;;;8.88;3.90;;;16.40;1.00;18.30;94527.00;;;;7389442;19;20807;-74
2023/05/18 10:51:30;;;;;;;12.82;3.80;;;16.70;1.00;19.20;94517.00;;;;7394474;19;20667;-74
2023/05/18 10:54:11;;;;;;;9.52;3.50;;;17.50;1.00;20.90;94521.00;;;;7397486;19;20129;-75
2023/05/18 10:56:49;;;;;;;9.68;3.72;;;18.40;1.00;21.70;94526.00;;;;7396489;19;20132;-76
2023/05/18 10:59:22;;;;;;;10.23;3.95;;;19.40;1.00;21.80;94499.00;;;;7396245;19;20530;-75
2023/05/18 11:01:58;;;;;;;6.97;3.38;;;20.10;1.00;20.90;94566.00;;;;7394796;19;20169;-74
2023/05/18 11:04:32;;;;;;;5.88;3.40;;;20.40;1.00;20.80;94528.00;;;;7394809;19;20187;-72
2023/05/18 11:07:11;;;;;;;10.88;4.60;;;19.90;1.00;18.90;94565.00;;;;7395581;19;20632;-73
2023/05/18 11:09:43;;;;;;;8.45;3.30;;;19.30;1.00;19.30;94564.00;;;;7395170;19;20153;-74
2023/05/18 11:12:17;;;;;;;7.20;3.50;;;18.80;1.00;19.70;94495.00;;;;7395690;19;20576;-74
2023/05/18 11:14:53;;;;;;;6.20;2.80;;;18.70;1.00;20.70;94480.00;;;;7396881;19;20630;-79
2023/05/18 11:17:29;;;;;;;8.02;3.60;;;19.40;1.00;22.20;94503.00;;;;7393787;19;20145;-73
2023/05/18 11:20:06;;;;;;;8.10;3.13;;;19.90;1.00;21.00;94521.00;;;;7394351;19;20588;-74
2023/05/18 11:22:58;;;;;;;6.70;3.13;;;20.10;1.00;20.60;94519.00;;;;7394102;19;20161;-74
2023/05/18 11:25:31;;;;;;;9.68;3.50;;;20.20;1.00;21.40;94521.00;;;;7393991;19;20157;-75
2023/05/18 11:28:04;;;;;;;10.73;3.20;;;20.60;1.00;21.80;94509.00;;;;7391676;19;20149;-74
2023/05/18 11:30:39;;;;;;;10.65;3.78;;;20.50;1.00;20.20;94574.00;;;;7395062;19;20153;-73
2023/05/18 11:33:15;;;;;;;7.32;3.58;;;19.90;1.00;20.40;94500.00;;;;7395217;19;20608;-72